Time;durP1;ratioP1;P1;durP2;ratioP2;P2;SDS_P1;SDS_P2;PMS_P1;PMS_P2;Temp;Humidity;BMP_temperature;BMP_pressure;BME280_temperature;BME280_humidity;BME280_pressure;Samples;Min_cycle;Max_cycle;Signal;HPM_P1;HPM_P2
2023/03/02 00:02:46;;;;;;;39.77;18.00;;;;;2.20;96406.00;;;;8401261;28;20228;-71
2023/03/02 00:06:52;;;;;;;40.00;15.47;;;;;2.20;96400.00;;;;8402125;28;20572;-70
2023/03/02 00:10:56;;;;;;;33.57;14.23;;;;;2.20;96401.00;;;;8402466;28;20612;-70
2023/03/02 00:15:07;;;;;;;30.53;11.97;;;;;2.20;96395.00;;;;8400490;28;20557;-70
2023/03/02 00:19:14;;;;;;;27.40;12.83;;;;;2.20;96411.00;;;;8401982;28;20223;-69
2023/03/02 00:23:18;;;;;;;35.13;13.17;;;;;2.20;96402.00;;;;8383411;28;20205;-70
2023/03/02 00:27:21;;;;;;;33.17;15.57;;;;;2.20;96398.00;;;;8401148;28;20652;-69
2023/03/02 00:31:24;;;;;;;33.20;13.60;;;;;2.10;96395.00;;;;8400426;28;20188;-69
2023/03/02 00:35:29;;;;;;;33.70;15.80;;;;;2.20;96393.00;;;;8399633;28;20196;-69
2023/03/02 00:39:35;;;;;;;35.20;14.43;;;;;2.20;96396.00;;;;8400309;28;20201;-69
2023/03/02 00:43:41;;;;;;;35.70;14.40;;;;;2.10;96401.00;;;;8400312;28;20194;-69
2023/03/02 00:47:44;;;;;;;36.53;14.77;;;;;2.20;96387.00;;;;8400876;28;20229;-69
2023/03/02 00:51:49;;;;;;;32.30;13.90;;;;;2.20;96380.00;;;;8401253;28;20217;-69
2023/03/02 00:55:55;;;;;;;29.47;12.83;;;;;2.20;96374.00;;;;8400123;28;20702;-69
2023/03/02 01:00:00;;;;;;;34.27;16.00;;;;;2.20;96371.00;;;;8399836;28;20270;-69
2023/03/02 01:04:03;;;;;;;36.87;13.57;;;;;2.10;96372.00;;;;8400023;28;20565;-69
2023/03/02 01:08:08;;;;;;;21.50;10.10;;;;;2.10;96363.00;;;;8399246;28;20584;-69
2023/03/02 01:12:14;;;;;;;39.50;16.00;;;;;2.10;96357.00;;;;8398627;28;20289;-69
2023/03/02 01:16:18;;;;;;;33.97;14.70;;;;;2.10;96363.00;;;;8395714;28;20579;-69
2023/03/02 01:20:21;;;;;;;39.97;15.13;;;;;2.10;96357.00;;;;8396915;28;20226;-70
2023/03/02 01:24:27;;;;;;;30.63;13.30;;;;;2.10;96347.00;;;;8398951;28;20254;-69
2023/03/02 01:28:30;;;;;;;41.77;15.80;;;;;2.20;96352.00;;;;8398145;28;20254;-69
2023/03/02 01:32:33;;;;;;;39.57;14.77;;;;;2.10;96348.00;;;;8398794;28;20199;-69
2023/03/02 01:36:40;;;;;;;36.87;15.73;;;;;2.10;96349.00;;;;8398776;28;20200;-69
2023/03/02 01:40:50;;;;;;;36.00;14.10;;;;;2.10;96335.00;;;;8398894;28;20220;-70
2023/03/02 01:44:55;;;;;;;39.67;15.63;;;;;2.10;96329.00;;;;8397378;28;20196;-70
2023/03/02 01:49:02;;;;;;;33.83;14.50;;;;;2.00;96324.00;;;;8398721;28;20280;-70
2023/03/02 01:53:05;;;;;;;38.80;17.17;;;;;2.00;96322.00;;;;8398484;28;20215;-69
2023/03/02 01:57:13;;;;;;;42.73;17.40;;;;;2.00;96315.00;;;;8397912;28;20249;-70
2023/03/02 02:01:20;;;;;;;38.37;16.77;;;;;2.00;96318.00;;;;8397593;28;20220;-70
2023/03/02 02:05:26;;;;;;;37.50;15.50;;;;;2.00;96315.00;;;;8397864;28;20199;-70
2023/03/02 02:09:35;;;;;;;36.53;16.73;;;;;2.00;96310.00;;;;8397767;28;20196;-69
2023/03/02 02:13:42;;;;;;;41.90;16.53;;;;;2.00;96317.00;;;;8397522;28;20201;-70
2023/03/02 02:17:46;;;;;;;36.50;14.90;;;;;2.00;96310.00;;;;8397388;28;20274;-70
2023/03/02 02:21:52;;;;;;;33.13;15.13;;;;;1.90;96308.00;;;;8379500;28;20230;-70
2023/03/02 02:26:11;;;;;;;39.30;15.73;;;;;1.90;96317.00;;;;8397466;28;20207;-70
2023/03/02 02:30:22;;;;;;;39.83;15.30;;;;;1.90;96316.00;;;;8397943;28;20200;-70
2023/03/02 02:34:30;;;;;;;42.63;16.57;;;;;1.90;96310.00;;;;8396598;28;20196;-70
2023/03/02 02:38:35;;;;;;;43.27;15.93;;;;;1.90;96306.00;;;;8397407;28;20242;-70
2023/03/02 02:42:47;;;;;;;42.17;15.77;;;;;1.90;96312.00;;;;8397104;28;20250;-70
2023/03/02 02:46:52;;;;;;;39.17;16.57;;;;;1.90;96309.00;;;;8397366;28;20246;-70
2023/03/02 02:51:01;;;;;;;40.17;15.47;;;;;1.90;96312.00;;;;8397246;28;20204;-70
2023/03/02 02:55:08;;;;;;;36.10;14.60;;;;;1.90;96310.00;;;;8397461;28;20236;-69
2023/03/02 02:59:17;;;;;;;41.50;15.90;;;;;1.80;96306.00;;;;8402434;28;20245;-69
2023/03/02 03:03:29;;;;;;;42.13;15.60;;;;;1.80;96310.00;;;;8439852;22;20240;-72
2023/03/02 03:07:32;;;;;;;37.90;14.40;;;;;1.80;96313.00;;;;8431902;28;20248;-70
2023/03/02 03:11:42;;;;;;;37.30;15.67;;;;;1.80;96310.00;;;;8422713;28;20610;-70
2023/03/02 03:15:47;;;;;;;36.07;13.90;;;;;1.70;96305.00;;;;8444072;28;20232;-70
2023/03/02 03:19:50;;;;;;;37.87;15.40;;;;;1.70;96314.00;;;;8441356;28;20203;-71
2023/03/02 03:23:55;;;;;;;36.67;14.27;;;;;1.70;96306.00;;;;8436743;28;20754;-69
2023/03/02 03:28:02;;;;;;;38.90;16.03;;;;;1.70;96306.00;;;;8448948;28;20244;-70
2023/03/02 03:32:10;;;;;;;38.30;15.10;;;;;1.70;96306.00;;;;8435009;28;20214;-70
2023/03/02 03:36:13;;;;;;;39.03;16.33;;;;;1.70;96296.00;;;;8438002;28;20192;-71
2023/03/02 03:40:23;;;;;;;35.07;14.97;;;;;1.70;96309.00;;;;8438485;28;20207;-70
2023/03/02 03:44:28;;;;;;;35.17;15.13;;;;;1.70;96304.00;;;;8446982;28;20191;-69
2023/03/02 03:48:32;;;;;;;40.77;17.00;;;;;1.70;96302.00;;;;8447263;28;20200;-71
2023/03/02 03:52:36;;;;;;;35.93;15.47;;;;;1.70;96293.00;;;;8442764;28;20272;-70
2023/03/02 03:56:43;;;;;;;33.47;11.80;;;;;1.60;96298.00;;;;8439777;28;20665;-70
2023/03/02 04:00:55;;;;;;;36.30;15.50;;;;;1.60;96299.00;;;;8443641;28;20197;-70
2023/03/02 04:05:05;;;;;;;37.43;16.07;;;;;1.60;96285.00;;;;8420146;28;20396;-70
2023/03/02 04:09:11;;;;;;;39.67;16.83;;;;;1.60;96289.00;;;;8415744;28;20208;-71
2023/03/02 04:13:15;;;;;;;40.87;16.53;;;;;1.60;96296.00;;;;8412122;28;20246;-71
2023/03/02 04:17:21;;;;;;;38.73;16.60;;;;;1.60;96291.00;;;;8414966;28;20208;-73
2023/03/02 04:21:26;;;;;;;37.70;15.47;;;;;1.60;96283.00;;;;8409444;28;20271;-71
2023/03/02 04:25:33;;;;;;;35.60;15.00;;;;;1.60;96285.00;;;;8409802;28;20252;-72
2023/03/02 04:29:47;;;;;;;34.47;15.13;;;;;1.70;96289.00;;;;8407497;28;20203;-71
2023/03/02 04:33:50;;;;;;;34.80;15.00;;;;;1.80;96298.00;;;;8407642;28;20192;-72
2023/03/02 04:37:57;;;;;;;36.30;14.93;;;;;1.80;96283.00;;;;8410625;28;20268;-71
2023/03/02 04:42:00;;;;;;;35.67;15.00;;;;;1.70;96289.00;;;;8414136;28;20219;-71
2023/03/02 04:46:04;;;;;;;41.37;17.27;;;;;1.70;96294.00;;;;8411276;28;20202;-72
2023/03/02 04:50:11;;;;;;;43.73;17.33;;;;;1.60;96288.00;;;;8411160;28;20287;-71
2023/03/02 04:54:21;;;;;;;43.73;16.43;;;;;1.60;96291.00;;;;8398397;28;20252;-70
2023/03/02 04:58:24;;;;;;;32.57;12.27;;;;;1.60;96279.00;;;;8387192;28;20249;-71
2023/03/02 05:02:27;;;;;;;40.07;15.63;;;;;1.60;96280.00;;;;8407134;28;20686;-71
2023/03/02 05:06:30;;;;;;;36.57;15.53;;;;;1.60;96282.00;;;;8405406;28;20212;-70
2023/03/02 05:10:35;;;;;;;38.70;16.80;;;;;1.50;96274.00;;;;8413989;28;20200;-70
2023/03/02 05:14:38;;;;;;;40.13;16.43;;;;;1.60;96280.00;;;;8411338;28;20200;-72
2023/03/02 05:18:48;;;;;;;45.93;17.17;;;;;1.50;96272.00;;;;8406352;28;20197;-71
2023/03/02 05:22:51;;;;;;;41.80;17.23;;;;;1.50;96281.00;;;;8407132;28;20235;-68
2023/03/02 05:26:57;;;;;;;46.83;18.43;;;;;1.50;96272.00;;;;8411635;28;20278;-69
2023/03/02 05:31:01;;;;;;;45.87;17.87;;;;;1.40;96268.00;;;;8403002;28;20211;-68
2023/03/02 05:35:07;;;;;;;38.73;15.97;;;;;1.40;96276.00;;;;8406566;28;20245;-69
2023/03/02 05:39:12;;;;;;;42.17;17.60;;;;;1.50;96277.00;;;;8406556;28;20300;-69
2023/03/02 05:43:19;;;;;;;40.07;15.70;;;;;1.50;96277.00;;;;8409314;28;20285;-69
2023/03/02 05:47:27;;;;;;;41.27;17.33;;;;;1.50;96274.00;;;;8411374;28;20188;-68
2023/03/02 05:51:30;;;;;;;35.30;15.47;;;;;1.50;96284.00;;;;8405415;28;20638;-68
2023/03/02 05:55:35;;;;;;;55.03;17.27;;;;;1.50;96286.00;;;;8398928;28;20205;-68
2023/03/02 05:59:42;;;;;;;35.73;16.10;;;;;1.50;96282.00;;;;8406097;28;21379;-68
2023/03/02 06:03:45;;;;;;;35.87;14.37;;;;;1.50;96282.00;;;;8409618;28;20275;-68
2023/03/02 06:07:50;;;;;;;33.40;14.40;;;;;1.50;96292.00;;;;8400333;28;20199;-66
2023/03/02 06:11:53;;;;;;;48.10;19.00;;;;;1.50;96289.00;;;;8416825;28;20684;-68
2023/03/02 06:15:58;;;;;;;37.93;14.83;;;;;1.50;96290.00;;;;8410033;28;20255;-69
2023/03/02 06:20:01;;;;;;;46.97;19.40;;;;;1.60;96308.00;;;;8401463;28;20209;-68
2023/03/02 06:24:07;;;;;;;45.00;18.07;;;;;1.60;96310.00;;;;8415668;28;20231;-69
2023/03/02 06:28:10;;;;;;;47.23;20.20;;;;;1.70;96309.00;;;;8403873;28;20643;-68
2023/03/02 06:32:15;;;;;;;47.03;17.23;;;;;1.70;96318.00;;;;8410296;28;20332;-67
2023/03/02 06:36:19;;;;;;;34.63;14.37;;;;;1.80;96318.00;;;;8406139;28;20569;-68
2023/03/02 06:40:22;;;;;;;42.00;18.27;;;;;1.80;96312.00;;;;8415588;28;20211;-67
2023/03/02 06:44:26;;;;;;;43.27;15.33;;;;;1.80;96314.00;;;;8414923;28;20281;-67
2023/03/02 06:48:30;;;;;;;51.80;18.10;;;;;1.90;96318.00;;;;8415437;28;20611;-68
2023/03/02 06:52:36;;;;;;;39.23;16.70;;;;;1.90;96305.00;;;;8409056;28;20231;-67
2023/03/02 06:56:40;;;;;;;44.10;15.60;;;;;2.00;96313.00;;;;8415810;28;20537;-69
2023/03/02 07:00:43;;;;;;;25.20;11.20;;;;;2.10;96320.00;;;;8413242;28;20277;-68
2023/03/02 07:04:50;;;;;;;46.93;19.50;;;;;2.20;96323.00;;;;8409652;28;20294;-68
2023/03/02 07:08:54;;;;;;;40.47;15.40;;;;;2.20;96316.00;;;;8411061;28;20204;-67
2023/03/02 07:13:00;;;;;;;39.67;16.27;;;;;2.30;96318.00;;;;8412045;28;20235;-68
2023/03/02 07:17:04;;;;;;;35.67;13.63;;;;;2.40;96321.00;;;;8410410;28;20220;-68
2023/03/02 07:21:09;;;;;;;40.63;18.73;;;;;2.50;96320.00;;;;8410981;28;20230;-69
2023/03/02 07:25:15;;;;;;;43.63;18.13;;;;;2.60;96322.00;;;;8407959;28;20943;-68
2023/03/02 07:29:19;;;;;;;43.60;16.17;;;;;2.60;96320.00;;;;8415399;28;20219;-69
2023/03/02 07:33:22;;;;;;;42.77;17.33;;;;;2.70;96317.00;;;;8421166;28;20203;-69
2023/03/02 07:37:27;;;;;;;27.87;11.13;;;;;2.80;96324.00;;;;8408521;28;20213;-69
2023/03/02 07:41:35;;;;;;;43.97;17.80;;;;;2.90;96318.00;;;;8403210;28;20206;-69
2023/03/02 07:45:40;;;;;;;39.90;16.03;;;;;3.00;96318.00;;;;8409916;28;20247;-69
2023/03/02 07:49:45;;;;;;;40.53;17.03;;;;;3.10;96322.00;;;;8410336;28;20217;-68
2023/03/02 07:53:50;;;;;;;43.60;17.27;;;;;3.20;96324.00;;;;8404702;28;20283;-69
2023/03/02 07:57:56;;;;;;;32.50;13.50;;;;;3.30;96325.00;;;;8406343;28;20195;-68
2023/03/02 08:02:05;;;;;;;37.80;16.17;;;;;3.40;96311.00;;;;8404746;28;20219;-68
2023/03/02 08:06:10;;;;;;;44.60;17.50;;;;;3.50;96324.00;;;;8402729;28;20210;-69
2023/03/02 08:10:16;;;;;;;37.77;17.00;;;;;3.60;96328.00;;;;8406433;28;20831;-68
2023/03/02 08:14:22;;;;;;;42.90;17.43;;;;;3.70;96336.00;;;;8407228;28;20559;-69
2023/03/02 08:18:26;;;;;;;45.50;17.93;;;;;3.80;96337.00;;;;8403950;28;20197;-70
2023/03/02 08:22:30;;;;;;;45.43;16.47;;;;;3.80;96335.00;;;;8405009;28;20279;-70
2023/03/02 08:26:35;;;;;;;45.90;17.40;;;;;4.00;96342.00;;;;8410177;28;20285;-69
2023/03/02 08:30:39;;;;;;;44.00;17.30;;;;;4.10;96353.00;;;;8402874;28;20210;-69
2023/03/02 08:34:42;;;;;;;39.87;17.97;;;;;4.20;96339.00;;;;8402178;28;20705;-67
2023/03/02 08:38:46;;;;;;;47.10;16.10;;;;;4.40;96336.00;;;;8406695;28;20199;-67
2023/03/02 08:42:56;;;;;;;39.23;15.97;;;;;4.50;96335.00;;;;8407763;28;20701;-68
2023/03/02 08:47:04;;;;;;;42.07;15.70;;;;;4.60;96333.00;;;;8406057;28;20210;-69
2023/03/02 08:51:11;;;;;;;46.13;16.77;;;;;4.80;96335.00;;;;8407296;28;20210;-70
2023/03/02 08:55:18;;;;;;;42.97;18.33;;;;;5.00;96332.00;;;;8406164;28;20601;-69
2023/03/02 08:59:27;;;;;;;37.60;16.03;;;;;5.20;96330.00;;;;8411343;28;20537;-76
2023/03/02 09:03:30;;;;;;;41.17;17.50;;;;;5.30;96329.00;;;;8403029;28;20239;-74
2023/03/02 09:07:33;;;;;;;38.57;16.27;;;;;5.50;96323.00;;;;8411826;28;20202;-70
2023/03/02 09:11:38;;;;;;;33.20;14.47;;;;;5.60;96321.00;;;;8411015;28;20199;-68
2023/03/02 09:15:47;;;;;;;39.87;15.80;;;;;5.70;96320.00;;;;8411400;28;20207;-72
2023/03/02 09:19:50;;;;;;;43.03;15.73;;;;;5.80;96321.00;;;;8407636;28;20196;-72
2023/03/02 09:23:56;;;;;;;35.53;16.33;;;;;5.90;96326.00;;;;8402885;28;20678;-75
2023/03/02 09:27:59;;;;;;;30.63;12.10;;;;;6.10;96324.00;;;;8402915;28;20741;-72
2023/03/02 09:32:06;;;;;;;34.20;14.30;;;;;6.30;96332.00;;;;8406926;28;20211;-77
2023/03/02 09:36:30;;;;;;;30.67;14.30;;;;;6.40;96321.00;;;;8410979;28;20200;-75
2023/03/02 09:40:38;;;;;;;37.87;16.37;;;;;6.70;96330.00;;;;8404487;28;20226;-79
2023/03/02 09:45:00;;;;;;;27.53;11.93;;;;;6.80;96329.00;;;;8390262;28;20235;-80
2023/03/02 09:49:19;;;;;;;37.30;13.57;;;;;6.90;96322.00;;;;8402592;28;20188;-75
2023/03/02 09:53:37;;;;;;;35.60;16.23;;;;;7.00;96323.00;;;;8408031;28;20276;-75
2023/03/02 09:57:40;;;;;;;28.63;11.67;;;;;7.10;96326.00;;;;8404686;28;20206;-76
2023/03/02 10:01:48;;;;;;;33.10;12.77;;;;;7.20;96333.00;;;;8386755;28;20274;-75
2023/03/02 10:05:55;;;;;;;28.43;12.80;;;;;7.30;96335.00;;;;8412918;28;20691;-75
2023/03/02 10:10:04;;;;;;;33.80;14.27;;;;;7.40;96331.00;;;;8404789;28;20194;-74
2023/03/02 10:14:13;;;;;;;34.97;15.93;;;;;7.60;96326.00;;;;8386097;28;20200;-74
2023/03/02 10:18:25;;;;;;;33.17;14.37;;;;;7.80;96327.00;;;;8408559;28;20200;-73
2023/03/02 10:22:35;;;;;;;33.70;14.87;;;;;8.10;96308.00;;;;8406405;28;20241;-74
2023/03/02 10:26:42;;;;;;;32.60;13.80;;;;;8.20;96320.00;;;;8400015;28;20231;-73
2023/03/02 10:30:48;;;;;;;34.53;15.07;;;;;8.20;96312.00;;;;8405418;28;20283;-74
2023/03/02 10:34:53;;;;;;;36.47;12.13;;;;;8.20;96314.00;;;;8402311;28;20214;-74
2023/03/02 10:38:59;;;;;;;25.83;12.23;;;;;8.50;96314.00;;;;8395409;28;20199;-75
2023/03/02 10:43:04;;;;;;;34.03;13.77;;;;;8.90;96311.00;;;;8391907;28;20918;-76
2023/03/02 10:47:19;;;;;;;37.00;13.70;;;;;9.30;96317.00;;;;8406257;28;20199;-74
2023/03/02 10:51:25;;;;;;;31.43;14.20;;;;;9.70;96314.00;;;;8409716;28;20199;-73
2023/03/02 10:55:30;;;;;;;35.97;14.93;;;;;10.10;96320.00;;;;8407841;28;20203;-73
2023/03/02 10:59:45;;;;;;;35.50;16.13;;;;;10.30;96305.00;;;;8412996;28;20609;-72
2023/03/02 11:03:58;;;;;;;37.23;15.27;;;;;10.40;96304.00;;;;8409868;28;20216;-72
2023/03/02 11:08:05;;;;;;;35.10;14.43;;;;;10.30;96311.00;;;;8405487;28;21029;-73
2023/03/02 11:12:17;;;;;;;31.97;14.37;;;;;10.20;96295.00;;;;8383975;28;20200;-78
2023/03/02 11:16:27;;;;;;;36.55;14.57;;;;;10.20;96297.00;;;;8402989;28;20200;-76
2023/03/02 11:20:34;;;;;;;35.05;13.98;;;;;10.40;96291.00;;;;8400216;28;20275;-77
2023/03/02 11:24:44;;;;;;;29.95;15.07;;;;;10.30;96298.00;;;;8405701;28;20233;-77
2023/03/02 11:29:00;;;;;;;31.50;13.77;;;;;10.30;96290.00;;;;8408815;28;20217;-78
2023/03/02 11:33:11;;;;;;;35.15;14.43;;;;;10.30;96302.00;;;;8407763;28;20191;-78
2023/03/02 11:37:19;;;;;;;37.57;16.13;;;;;10.20;96280.00;;;;8410089;28;20206;-79
2023/03/02 11:41:30;;;;;;;39.67;16.33;;;;;10.20;96279.00;;;;8387732;28;20258;-81
2023/03/02 11:45:45;;;;;;;29.75;13.88;;;;;10.30;96268.00;;;;8387301;28;20223;-82
2023/03/02 11:49:54;;;;;;;33.28;15.18;;;;;10.50;96274.00;;;;8408346;28;20238;-83
2023/03/02 11:54:01;;;;;;;32.42;12.43;;;;;10.70;96279.00;;;;8387825;28;20288;-81
2023/03/02 11:58:07;;;;;;;26.30;12.40;;;;;10.70;96264.00;;;;8405631;28;20192;-82
2023/03/02 12:02:14;;;;;;;31.85;13.82;;;;;10.80;96269.00;;;;8406489;28;20227;-80
2023/03/02 12:06:38;;;;;;;31.17;13.35;;;;;10.70;96261.00;;;;8407195;28;20318;-81
2023/03/02 12:10:57;;;;;;;30.05;13.93;;;;;10.60;96270.00;;;;8403949;28;20204;-83
2023/03/02 12:15:00;;;;;;;31.60;14.45;;;;;10.60;96261.00;;;;8406635;28;20222;-80
2023/03/02 12:19:28;;;;;;;39.47;14.63;;;;;10.70;96269.00;;;;8416931;28;20245;-80
2023/03/02 12:23:36;;;;;;;29.30;14.18;;;;;10.60;96266.00;;;;8434667;28;20192;-80
2023/03/02 12:27:41;;;;;;;37.72;16.10;;;;;10.60;96267.00;;;;8435799;28;20369;-83
2023/03/02 12:31:49;;;;;;;33.97;16.13;;;;;10.60;96252.00;;;;8433946;28;20632;-80
2023/03/02 12:36:14;;;;;;;40.75;16.40;;;;;10.70;96254.00;;;;8434313;28;20206;-76
2023/03/02 12:40:33;;;;;;;30.48;14.48;;;;;10.80;96245.00;;;;8434186;28;20207;-78
2023/03/02 12:44:46;;;;;;;35.30;14.88;;;;;10.90;96235.00;;;;8434218;28;20226;-77
2023/03/02 12:49:08;;;;;;;39.50;15.10;;;;;11.00;96234.00;;;;8433919;28;20663;-77
2023/03/02 12:53:18;;;;;;;32.75;14.05;;;;;11.10;96232.00;;;;8432232;28;20195;-77
2023/03/02 12:57:22;;;;;;;37.13;15.10;;;;;11.20;96222.00;;;;8433476;28;20210;-77
2023/03/02 13:01:27;;;;;;;32.30;14.60;;;;;11.20;96220.00;;;;8434367;28;20227;-78
2023/03/02 13:05:33;;;;;;;28.83;12.30;;;;;11.20;96231.00;;;;8432915;28;20223;-77
2023/03/02 13:09:39;;;;;;;34.65;13.60;;;;;11.20;96220.00;;;;8433617;28;20545;-77
2023/03/02 13:13:53;;;;;;;33.05;12.68;;;;;11.20;96237.00;;;;8433760;28;20180;-77
2023/03/02 13:18:02;;;;;;;32.05;13.07;;;;;11.20;96222.00;;;;8434052;28;20195;-78
2023/03/02 13:22:07;;;;;;;31.27;13.95;;;;;11.30;96214.00;;;;8432942;28;20630;-78
2023/03/02 13:26:26;;;;;;;33.50;12.75;;;;;11.30;96223.00;;;;8432653;28;20219;-78
2023/03/02 13:30:36;;;;;;;24.08;12.00;;;;;11.40;96215.00;;;;8432437;28;20231;-78
2023/03/02 13:34:48;;;;;;;30.65;11.23;;;;;11.40;96209.00;;;;8433991;28;20521;-78
2023/03/02 13:38:54;;;;;;;36.67;13.45;;;;;11.50;96206.00;;;;8432483;28;20609;-79
2023/03/02 13:43:01;;;;;;;28.90;13.70;;;;;11.60;96197.00;;;;8432081;28;20193;-79
2023/03/02 13:47:04;;;;;;;31.23;13.00;;;;;11.70;96195.00;;;;8431546;28;20265;-79
2023/03/02 13:51:17;;;;;;;30.15;12.70;;;;;11.80;96191.00;;;;8431991;28;20191;-80
2023/03/02 13:55:30;;;;;;;31.45;13.73;;;;;11.90;96199.00;;;;8431679;28;20217;-80
2023/03/02 13:59:36;;;;;;;29.30;14.02;;;;;11.90;96200.00;;;;8432231;28;20188;-80
2023/03/02 14:03:39;;;;;;;36.13;15.20;;;;;12.00;96196.00;;;;8432022;28;20217;-81
2023/03/02 14:07:45;;;;;;;31.35;14.18;;;;;12.00;96199.00;;;;8431659;28;20314;-80
2023/03/02 14:11:51;;;;;;;36.15;15.00;;;;;12.10;96201.00;;;;8432014;28;20288;-81
2023/03/02 14:15:58;;;;;;;37.05;15.98;;;;;12.00;96199.00;;;;8432002;28;20255;-81
2023/03/02 14:20:03;;;;;;;30.55;13.70;;;;;12.00;96199.00;;;;8432902;28;20197;-81
2023/03/02 14:24:13;;;;;;;36.17;16.05;;;;;12.10;96195.00;;;;8432175;28;20524;-82
2023/03/02 14:28:22;;;;;;;30.50;14.82;;;;;12.10;96194.00;;;;8432032;28;20252;-82
2023/03/02 14:32:27;;;;;;;35.78;15.75;;;;;12.10;96189.00;;;;8430982;28;20251;-82
2023/03/02 14:36:33;;;;;;;36.35;15.90;;;;;12.10;96186.00;;;;8432019;28;20536;-82
2023/03/02 14:40:36;;;;;;;33.70;14.80;;;;;12.10;96190.00;;;;8431068;28;20259;-83
2023/03/02 14:44:44;;;;;;;32.78;15.30;;;;;12.10;96180.00;;;;8432196;28;20251;-83
2023/03/02 14:48:49;;;;;;;30.48;15.35;;;;;12.20;96183.00;;;;8431248;28;20194;-82
2023/03/02 14:52:54;;;;;;;33.97;14.80;;;;;12.20;96179.00;;;;8432164;28;20201;-83
2023/03/02 14:56:57;;;;;;;39.47;18.08;;;;;12.10;96180.00;;;;8438143;28;20188;-83
2023/03/02 15:01:03;;;;;;;36.30;16.40;;;;;12.00;96178.00;;;;8437353;28;20201;-83
2023/03/02 15:05:08;;;;;;;35.92;15.70;;;;;12.00;96179.00;;;;8434820;28;20279;-91
2023/03/02 15:09:13;;;;;;;40.63;17.92;;;;;12.00;96179.00;;;;8436671;28;20192;-86
2023/03/02 15:13:19;;;;;;;36.70;17.63;;;;;12.00;96187.00;;;;8436644;28;20229;-85
2023/03/02 15:17:22;;;;;;;33.70;15.65;;;;;11.90;96188.00;;;;8437297;28;20575;-83
2023/03/02 15:21:33;;;;;;;34.40;16.63;;;;;11.80;96175.00;;;;8436491;28;20627;-90
2023/03/02 15:25:37;;;;;;;40.03;16.92;;;;;11.80;96185.00;;;;8437106;28;20224;-87
2023/03/02 15:29:45;;;;;;;34.20;15.40;;;;;11.70;96181.00;;;;8437756;28;20220;-87
2023/03/02 15:33:53;;;;;;;35.90;15.25;;;;;11.70;96184.00;;;;8436541;28;20528;-88
2023/03/02 15:38:03;;;;;;;35.15;15.77;;;;;11.70;96184.00;;;;8416571;28;20197;-85
2023/03/02 15:42:10;;;;;;;29.20;14.60;;;;;11.60;96179.00;;;;8430765;28;20195;-80
2023/03/02 15:46:15;;;;;;;35.60;14.82;;;;;11.60;96184.00;;;;8435279;28;20307;-79
2023/03/02 15:50:22;;;;;;;66.07;24.92;;;;;11.50;96187.00;;;;8434661;28;20681;-80
2023/03/02 15:54:27;;;;;;;30.73;14.55;;;;;11.30;96190.00;;;;8435831;28;20279;-80
2023/03/02 15:58:30;;;;;;;34.78;14.40;;;;;11.20;96199.00;;;;8434900;28;20201;-77
2023/03/02 16:02:34;;;;;;;25.52;13.43;;;;;11.20;96192.00;;;;8435536;28;20225;-80
2023/03/02 16:06:38;;;;;;;29.45;12.90;;;;;11.10;96203.00;;;;8434218;28;20612;-80
2023/03/02 16:10:57;;;;;;;27.30;13.20;;;;;11.00;96199.00;;;;8435795;28;20570;-80
2023/03/02 16:15:00;;;;;;;32.33;12.48;;;;;10.80;96199.00;;;;8435200;28;20242;-81
2023/03/02 16:19:06;;;;;;;31.85;11.70;;;;;10.80;96198.00;;;;8435477;28;20640;-80
2023/03/02 16:23:11;;;;;;;32.25;12.82;;;;;10.70;96196.00;;;;8432164;28;20199;-80
2023/03/02 16:27:17;;;;;;;29.65;12.00;;;;;10.60;96199.00;;;;8429907;28;20560;-81
2023/03/02 16:31:20;;;;;;;32.55;11.52;;;;;10.50;96202.00;;;;8433064;28;20188;-79
2023/03/02 16:35:27;;;;;;;27.13;12.70;;;;;10.40;96212.00;;;;8415866;28;20283;-83
2023/03/02 16:39:33;;;;;;;31.42;12.85;;;;;10.20;96215.00;;;;8433435;28;20193;-82
2023/03/02 16:43:43;;;;;;;26.42;12.50;;;;;10.10;96210.00;;;;8432811;28;20204;-84
2023/03/02 16:47:49;;;;;;;25.40;12.88;;;;;10.00;96213.00;;;;8433794;28;20227;-82
2023/03/02 16:51:57;;;;;;;33.28;14.43;;;;;9.90;96219.00;;;;8434087;28;20203;-83
2023/03/02 16:56:01;;;;;;;33.92;13.43;;;;;9.70;96223.00;;;;8433623;28;20305;-81
2023/03/02 17:00:10;;;;;;;39.55;15.35;;;;;9.60;96229.00;;;;8433329;28;20210;-81
2023/03/02 17:04:17;;;;;;;35.00;15.50;;;;;9.50;96229.00;;;;8433685;28;20231;-81
2023/03/02 17:08:22;;;;;;;34.70;14.73;;;;;9.40;96238.00;;;;8433636;28;20219;-81
2023/03/02 17:12:25;;;;;;;30.37;13.47;;;;;9.30;96234.00;;;;8433244;28;20192;-81
2023/03/02 17:16:30;;;;;;;37.03;16.05;;;;;9.20;96235.00;;;;8432409;28;20238;-80
2023/03/02 17:20:36;;;;;;;28.70;13.67;;;;;9.10;96237.00;;;;8432604;28;20191;-81
2023/03/02 17:24:40;;;;;;;39.83;15.53;;;;;9.00;96242.00;;;;8433727;28;20220;-80
2023/03/02 17:28:43;;;;;;;41.60;14.93;;;;;8.90;96245.00;;;;8432582;28;20226;-79
2023/03/02 17:32:48;;;;;;;34.60;15.83;;;;;8.80;96252.00;;;;8432501;28;20227;-78
2023/03/02 17:36:51;;;;;;;34.23;15.90;;;;;8.70;96256.00;;;;8432089;28;20274;-78
2023/03/02 17:40:55;;;;;;;38.03;16.13;;;;;8.50;96255.00;;;;8432457;28;20223;-79
2023/03/02 17:45:15;;;;;;;33.03;14.90;;;;;8.40;96254.00;;;;8432021;28;20313;-79
2023/03/02 17:49:19;;;;;;;36.40;15.03;;;;;8.30;96261.00;;;;8431616;28;20211;-79
2023/03/02 17:53:24;;;;;;;41.03;15.40;;;;;8.20;96259.00;;;;8431882;28;20596;-79
2023/03/02 17:57:27;;;;;;;38.43;14.33;;;;;8.00;96261.00;;;;8432242;28;20191;-79
2023/03/02 18:01:30;;;;;;;33.73;15.07;;;;;8.00;96262.00;;;;8431967;28;20222;-79
2023/03/02 18:05:35;;;;;;;40.17;15.80;;;;;8.00;96267.00;;;;8431654;28;20217;-79
2023/03/02 18:09:38;;;;;;;37.67;15.20;;;;;7.90;96261.00;;;;8432584;28;20296;-79
2023/03/02 18:13:42;;;;;;;36.67;15.33;;;;;7.90;96269.00;;;;8431621;28;20233;-79
2023/03/02 18:17:46;;;;;;;35.77;14.23;;;;;7.80;96276.00;;;;8431611;28;20764;-79
2023/03/02 18:21:57;;;;;;;33.17;13.70;;;;;7.60;96262.00;;;;8412972;28;20194;-79
2023/03/02 18:26:00;;;;;;;36.13;14.50;;;;;7.50;96265.00;;;;8431752;28;20195;-79
2023/03/02 18:30:05;;;;;;;32.23;15.33;;;;;7.30;96273.00;;;;8430827;28;20195;-79
2023/03/02 18:34:11;;;;;;;36.33;14.87;;;;;7.10;96265.00;;;;8413567;28;20187;-79
2023/03/02 18:38:16;;;;;;;40.03;15.97;;;;;7.00;96279.00;;;;8430670;28;20385;-79
2023/03/02 18:42:19;;;;;;;35.83;15.53;;;;;6.90;96278.00;;;;8431473;28;20248;-79
2023/03/02 18:46:25;;;;;;;44.43;16.80;;;;;6.80;96275.00;;;;8431056;28;20223;-79
2023/03/02 18:50:30;;;;;;;47.37;18.80;;;;;6.70;96277.00;;;;8430690;28;20194;-79
2023/03/02 18:54:35;;;;;;;47.37;18.40;;;;;6.70;96282.00;;;;8430813;28;20295;-79
2023/03/02 18:58:38;;;;;;;43.77;16.43;;;;;6.80;96279.00;;;;8430148;28;20612;-78
2023/03/02 19:02:43;;;;;;;40.60;17.60;;;;;6.70;96285.00;;;;8412199;28;20233;-80
2023/03/02 19:06:49;;;;;;;43.67;16.47;;;;;6.60;96283.00;;;;8430955;28;20595;-79
2023/03/02 19:10:54;;;;;;;38.23;15.03;;;;;6.60;96289.00;;;;8413130;28;20575;-82
2023/03/02 19:14:58;;;;;;;36.93;15.77;;;;;6.50;96289.00;;;;8426784;28;20540;-82
2023/03/02 19:19:03;;;;;;;46.87;16.27;;;;;6.50;96295.00;;;;8427085;28;20191;-80
2023/03/02 19:23:09;;;;;;;32.37;15.27;;;;;6.50;96291.00;;;;8412263;28;20248;-81
2023/03/02 19:27:15;;;;;;;36.47;14.70;;;;;6.50;96296.00;;;;8427488;28;20545;-80
2023/03/02 19:31:22;;;;;;;35.90;14.73;;;;;6.50;96302.00;;;;8430720;28;20188;-80
2023/03/02 19:35:31;;;;;;;38.60;16.03;;;;;6.50;96311.00;;;;8430050;28;20202;-84
2023/03/02 19:39:34;;;;;;;40.17;16.30;;;;;6.50;96307.00;;;;8432294;28;20194;-79
2023/03/02 19:43:44;;;;;;;42.67;17.20;;;;;6.40;96304.00;;;;8417244;28;20335;-78
2023/03/02 19:47:47;;;;;;;45.07;16.07;;;;;6.30;96311.00;;;;8433786;28;20594;-80
2023/03/02 19:51:50;;;;;;;36.53;16.03;;;;;6.20;96310.00;;;;8418363;28;20640;-81
2023/03/02 19:55:59;;;;;;;46.37;16.47;;;;;6.20;96311.00;;;;8435453;28;20662;-81
2023/03/02 20:00:08;;;;;;;41.67;15.80;;;;;6.20;96315.00;;;;8435672;28;20286;-80
2023/03/02 20:04:13;;;;;;;37.53;16.23;;;;;6.20;96314.00;;;;8416943;28;20223;-80
2023/03/02 20:08:20;;;;;;;36.87;16.47;;;;;6.10;96310.00;;;;8435251;28;20336;-80
2023/03/02 20:12:23;;;;;;;36.30;16.03;;;;;6.00;96314.00;;;;8435400;28;20242;-83
2023/03/02 20:16:29;;;;;;;40.57;16.87;;;;;6.00;96323.00;;;;8435408;28;20579;-79